Terminal Aerodrome Forecast
Issued by NWS

Home | Current Version | Previous Version | Text Only | Print | Product List | Glossary On
Versions: 1 2 3 4 5 6 7 8 9 10 11 12 13 14 15 16
000
FTUS43 KSGF 172300
TAFJLN
TAF
KJLN 172322Z 1800/1824 36009KT P6SM SKC
     FM180100 VRB04KT P6SM SKC
     FM181000 VRB03KT 4SM BR SKC
     FM181400 21008KT P6SM SCT250=

USA.gov is the U.S. government's official web portal to all federal, state and local government web resources and services.